createdAt,value
2019-04-26T00:12:24.900Z,66.42
2019-04-26T00:27:31.718Z,66.57
2019-04-26T00:42:39.030Z,66.29
2019-04-26T00:57:47.510Z,66.69
2019-04-26T01:12:55.415Z,68.32
2019-04-26T01:28:03.442Z,67.41
2019-04-26T01:43:16.723Z,67.75
2019-04-26T01:58:25.248Z,66.93
2019-04-26T02:13:33.070Z,66.41
2019-04-26T02:28:41.150Z,67.93
2019-04-26T02:43:50.849Z,67.44
2019-04-26T02:59:05.557Z,67.06
2019-04-26T03:14:15.213Z,68.19
2019-04-26T03:29:45.909Z,67.33
2019-04-26T03:45:16.465Z,68.11
2019-04-26T04:00:31.490Z,67.53
2019-04-26T04:15:46.767Z,67.48
2019-04-26T04:31:29.296Z,66.58
2019-04-26T04:47:24.189Z,63.66
2019-04-26T05:02:51.701Z,62.28
2019-04-26T05:18:22.496Z,59.02
2019-04-26T05:33:40.186Z,54.87
2019-04-26T05:49:34.000Z,50.07
2019-04-26T06:05:14.943Z,47.59
2019-04-26T06:20:47.431Z,48.75
2019-04-26T06:35:56.218Z,48.36
2019-04-26T06:51:23.795Z,47.55
2019-04-26T07:06:46.066Z,47.71
2019-04-26T07:22:35.903Z,46.57
2019-04-26T07:38:18.660Z,43.06
2019-04-26T07:53:43.103Z,38.52
2019-04-26T08:09:01.235Z,35.61
2019-04-26T08:24:16.728Z,35.61
2019-04-26T08:39:32.543Z,33.94
2019-04-26T08:54:41.341Z,33.57
2019-04-26T09:09:57.332Z,31.80
2019-04-26T09:25:14.929Z,31.37
2019-04-26T09:40:22.881Z,29.40
2019-04-26T09:55:35.575Z,29.03
2019-04-26T10:10:38.668Z,27.30
2019-04-26T10:25:47.303Z,28.08
2019-04-26T10:40:55.192Z,26.79
2019-04-26T10:56:10.826Z,24.83
2019-04-26T11:11:18.036Z,26.36
2019-04-26T11:26:26.024Z,25.75
2019-04-26T11:41:34.011Z,25.15
2019-04-26T11:56:41.113Z,25.13
2019-04-26T12:11:50.961Z,24.13
2019-04-26T12:26:57.707Z,26.04
2019-04-26T12:42:08.290Z,24.82
2019-04-26T12:57:16.476Z,25.37
2019-04-26T13:12:26.002Z,25.28
2019-04-26T13:27:34.634Z,25.65
2019-04-26T13:42:47.413Z,25.94
2019-04-26T13:57:55.872Z,25.71
2019-04-26T14:13:02.711Z,24.43
2019-04-26T14:28:12.023Z,25.11
2019-04-26T14:43:22.449Z,24.28
2019-04-26T14:58:30.441Z,23.84
2019-04-26T15:13:40.557Z,25.17
2019-04-26T15:28:50.364Z,24.78
2019-04-26T15:44:05.485Z,25.99
2019-04-26T15:59:12.814Z,26.23
2019-04-26T16:14:24.951Z,27.51
2019-04-26T16:29:39.965Z,27.00
2019-04-26T16:44:46.993Z,27.14
2019-04-26T16:59:57.564Z,28.27
2019-04-26T17:15:03.472Z,29.40
2019-04-26T17:30:13.780Z,30.44
2019-04-26T17:45:23.859Z,29.53
2019-04-26T18:00:45.601Z,29.64
2019-04-26T18:15:46.925Z,30.83
2019-04-26T18:30:53.072Z,32.31
2019-04-26T18:46:08.073Z,33.69
2019-04-26T19:01:17.132Z,38.93
2019-04-26T19:16:42.261Z,38.93
2019-04-26T19:31:52.333Z,40.52
2019-04-26T19:47:07.755Z,42.03
2019-04-26T20:02:15.039Z,42.74
2019-04-26T20:17:23.580Z,43.83
2019-04-26T20:32:35.090Z,42.23
2019-04-26T20:47:41.898Z,41.60
2019-04-26T21:02:48.897Z,41.74
2019-04-26T21:17:56.601Z,42.11
2019-04-26T21:33:07.010Z,42.95
2019-04-26T21:48:18.306Z,44.07
2019-04-26T22:03:24.271Z,47.22
2019-04-26T22:18:35.582Z,48.41
2019-04-26T22:33:42.882Z,49.79
2019-04-26T22:49:01.012Z,52.68
2019-04-26T23:04:03.432Z,54.75
2019-04-26T23:19:19.278Z,56.37
2019-04-26T23:34:25.230Z,56.36
2019-04-26T23:49:33.429Z,56.65
